Time;durP1;ratioP1;P1;durP2;ratioP2;P2;SDS_P1;SDS_P2;PMS_P1;PMS_P2;Temp;Humidity;BMP_temperature;BMP_pressure;BME280_temperature;BME280_humidity;BME280_pressure;Samples;Min_cycle;Max_cycle;Signal;HPM_P1;HPM_P2
2022/05/29 00:00:18;;;;;;;16.23;9.40;;;;;;;;;;4994918;28;20587;-68
2022/05/29 00:02:44;;;;;;;14.05;8.77;;;;;;;;;;4995327;28;20027;-68
2022/05/29 00:05:11;;;;;;;15.32;8.65;;;;;;;;;;4994267;28;20125;-70
2022/05/29 00:07:38;;;;;;;14.30;8.23;;;;;;;;;;4994526;28;20026;-68
2022/05/29 00:10:08;;;;;;;12.55;8.13;;;;;;;;;;4994447;28;20038;-66
2022/05/29 00:12:34;;;;;;;16.98;9.18;;;;;;;;;;4988906;28;20423;-69
2022/05/29 00:15:01;;;;;;;18.08;8.82;;;;;;;;;;4994156;28;20038;-67
2022/05/29 00:17:27;;;;;;;16.83;8.82;;;;;;;;;;4993568;28;20057;-66
2022/05/29 00:19:52;;;;;;;14.55;8.68;;;;;;;;;;4994359;28;20473;-67
2022/05/29 00:22:21;;;;;;;22.38;9.63;;;;;;;;;;4995085;28;20030;-68
2022/05/29 00:24:48;;;;;;;12.25;9.10;;;;;;;;;;4981493;28;20023;-66
2022/05/29 00:27:19;;;;;;;15.25;10.02;;;;;;;;;;4994034;28;20058;-67
2022/05/29 00:29:45;;;;;;;18.58;9.95;;;;;;;;;;4991839;28;20037;-70
2022/05/29 00:32:11;;;;;;;19.05;10.48;;;;;;;;;;4994680;28;20053;-67
2022/05/29 00:34:37;;;;;;;19.48;9.75;;;;;;;;;;4993192;28;20030;-70
2022/05/29 00:37:07;;;;;;;16.27;9.48;;;;;;;;;;4993974;28;20030;-69
2022/05/29 00:39:34;;;;;;;14.70;9.00;;;;;;;;;;4994210;28;20069;-67
2022/05/29 00:42:06;;;;;;;17.70;8.95;;;;;;;;;;4994721;28;20046;-65
2022/05/29 00:44:33;;;;;;;14.60;9.65;;;;;;;;;;4994888;28;20113;-66
2022/05/29 00:47:20;;;;;;;15.30;8.70;;;;;;;;;;4993872;28;20027;-67
2022/05/29 00:49:49;;;;;;;15.68;9.13;;;;;;;;;;4994493;28;20026;-66
2022/05/29 00:52:24;;;;;;;17.23;10.10;;;;;;;;;;4993981;28;20105;-66
2022/05/29 00:54:58;;;;;;;16.85;9.43;;;;;;;;;;4994171;28;20400;-69
2022/05/29 00:57:34;;;;;;;14.35;8.55;;;;;;;;;;4993032;28;20040;-72
2022/05/29 01:00:14;;;;;;;14.88;9.00;;;;;;;;;;4993500;28;20030;-67
2022/05/29 01:02:41;;;;;;;16.00;8.85;;;;;;;;;;4993381;28;20141;-69
2022/05/29 01:05:10;;;;;;;13.75;8.48;;;;;;;;;;4991985;28;20473;-69
2022/05/29 01:07:37;;;;;;;14.52;7.93;;;;;;;;;;4975017;28;20027;-65
2022/05/29 01:10:05;;;;;;;16.08;8.77;;;;;;;;;;4974331;28;20031;-66
2022/05/29 01:13:13;;;;;;;11.52;7.90;;;;;;;;;;4973688;28;20109;-65
2022/05/29 01:16:13;;;;;;;13.07;8.25;;;;;;;;;;4957303;28;20059;-69
2022/05/29 01:18:50;;;;;;;16.90;9.02;;;;;;;;;;4943171;28;20042;-67
2022/05/29 01:21:21;;;;;;;18.02;9.05;;;;;;;;;;4974008;28;20027;-68
2022/05/29 01:24:32;;;;;;;11.15;7.85;;;;;;;;;;4982842;28;20355;-69
2022/05/29 01:27:12;;;;;;;12.82;9.23;;;;;;;;;;4964702;28;20108;-66
2022/05/29 01:29:56;;;;;;;13.68;9.52;;;;;;;;;;4977783;28;20038;-67
2022/05/29 01:32:43;;;;;;;13.43;8.75;;;;;;;;;;4993227;28;20038;-65
2022/05/29 01:35:13;;;;;;;16.52;9.25;;;;;;;;;;4991831;28;20145;-66
2022/05/29 01:38:08;;;;;;;15.73;9.07;;;;;;;;;;4993076;28;20500;-70
2022/05/29 01:40:39;;;;;;;12.23;8.88;;;;;;;;;;4992686;28;20439;-67
2022/05/29 01:43:14;;;;;;;14.65;9.30;;;;;;;;;;4993075;28;20050;-71
2022/05/29 01:46:05;;;;;;;14.68;9.27;;;;;;;;;;4993343;28;20042;-67
2022/05/29 01:48:47;;;;;;;15.15;9.38;;;;;;;;;;4993399;28;20026;-68
2022/05/29 01:51:29;;;;;;;18.48;9.63;;;;;;;;;;4992993;28;20385;-66
2022/05/29 01:54:01;;;;;;;11.93;8.88;;;;;;;;;;4993652;28;20074;-68
2022/05/29 01:56:33;;;;;;;16.88;9.18;;;;;;;;;;4992562;28;20026;-70
2022/05/29 01:59:05;;;;;;;14.90;9.65;;;;;;;;;;4992993;28;20541;-67
2022/05/29 02:01:34;;;;;;;17.20;8.48;;;;;;;;;;4973702;28;20027;-71
2022/05/29 02:04:08;;;;;;;13.07;9.13;;;;;;;;;;4973535;28;20038;-69
2022/05/29 02:09:33;;;;;;;17.88;10.25;;;;;;;;;;4984554;28;20165;-70
2022/05/29 02:12:01;;;;;;;18.15;10.15;;;;;;;;;;4992473;28;20034;-71
2022/05/29 02:14:35;;;;;;;15.02;9.20;;;;;;;;;;4991710;28;20019;-69
2022/05/29 02:17:16;;;;;;;14.68;9.15;;;;;;;;;;4991569;28;20112;-72
2022/05/29 02:19:48;;;;;;;16.23;9.15;;;;;;;;;;4992686;28;20744;-66
2022/05/29 02:22:25;;;;;;;16.83;9.52;;;;;;;;;;4992370;28;20109;-70
2022/05/29 02:24:58;;;;;;;15.02;8.65;;;;;;;;;;4992836;28;20397;-65
2022/05/29 02:27:33;;;;;;;17.27;9.60;;;;;;;;;;4991888;28;20397;-69
2022/05/29 02:30:00;;;;;;;13.20;9.45;;;;;;;;;;4991370;28;20443;-68
2022/05/29 02:32:29;;;;;;;16.00;9.40;;;;;;;;;;5007655;28;20177;-71
2022/05/29 02:34:55;;;;;;;13.57;9.50;;;;;;;;;;4991882;28;20516;-67
2022/05/29 02:37:29;;;;;;;17.50;9.77;;;;;;;;;;4991773;28;20030;-67
2022/05/29 02:40:08;;;;;;;14.45;9.77;;;;;;;;;;4991390;28;20050;-69
2022/05/29 02:42:43;;;;;;;15.93;10.05;;;;;;;;;;4991004;28;20047;-67
2022/05/29 02:45:28;;;;;;;18.10;9.70;;;;;;;;;;4991905;28;20026;-67
2022/05/29 02:48:02;;;;;;;12.63;9.05;;;;;;;;;;4992146;28;20038;-67
2022/05/29 02:50:51;;;;;;;12.18;9.57;;;;;;;;;;4991835;28;20037;-68
2022/05/29 02:53:17;;;;;;;20.23;10.20;;;;;;;;;;4991186;28;20500;-70
2022/05/29 02:55:44;;;;;;;14.45;10.10;;;;;;;;;;4991839;28;20144;-72
2022/05/29 02:58:19;;;;;;;15.70;10.25;;;;;;;;;;4990440;28;20497;-66
2022/05/29 03:00:59;;;;;;;14.63;10.43;;;;;;;;;;4991628;28;20074;-66
2022/05/29 03:03:45;;;;;;;16.92;10.18;;;;;;;;;;4990635;28;20670;-66
2022/05/29 03:06:25;;;;;;;19.10;11.27;;;;;;;;;;4991811;28;20054;-66
2022/05/29 03:09:13;;;;;;;18.40;10.70;;;;;;;;;;4990804;28;20034;-66
2022/05/29 03:11:42;;;;;;;15.48;10.10;;;;;;;;;;4991687;28;20113;-66
2022/05/29 03:14:19;;;;;;;18.40;10.20;;;;;;;;;;4977130;28;21178;-66
2022/05/29 03:16:45;;;;;;;14.48;10.40;;;;;;;;;;4976337;28;20033;-68
2022/05/29 03:19:28;;;;;;;18.50;10.70;;;;;;;;;;4989631;28;20034;-67
2022/05/29 03:22:14;;;;;;;22.00;10.40;;;;;;;;;;4991435;28;20038;-67
2022/05/29 03:25:24;;;;;;;15.35;9.32;;;;;;;;;;4991368;28;20057;-69
2022/05/29 03:27:52;;;;;;;15.73;10.45;;;;;;;;;;4972882;28;20073;-70
2022/05/29 03:30:32;;;;;;;17.08;9.60;;;;;;;;;;4991129;28;20038;-71
2022/05/29 03:33:01;;;;;;;14.05;9.75;;;;;;;;;;4990655;28;20065;-67
2022/05/29 03:35:34;;;;;;;13.27;10.30;;;;;;;;;;4990706;28;20031;-67
2022/05/29 03:38:03;;;;;;;14.57;10.23;;;;;;;;;;4990722;28;20370;-67
2022/05/29 03:40:31;;;;;;;17.08;10.57;;;;;;;;;;4992216;28;20030;-67
2022/05/29 03:42:57;;;;;;;15.25;9.63;;;;;;;;;;4991470;28;20533;-68
2022/05/29 03:45:24;;;;;;;17.15;9.50;;;;;;;;;;4991245;28;20037;-69
2022/05/29 03:47:50;;;;;;;12.68;9.35;;;;;;;;;;4986656;28;20445;-69
2022/05/29 03:50:19;;;;;;;13.20;8.95;;;;;;;;;;4972756;28;20066;-66
2022/05/29 03:52:46;;;;;;;15.82;9.88;;;;;;;;;;4972398;28;20093;-66
2022/05/29 03:55:13;;;;;;;20.20;10.30;;;;;;;;;;4991658;28;20100;-68
2022/05/29 03:57:39;;;;;;;17.63;10.60;;;;;;;;;;4988808;28;20045;-71
2022/05/29 04:00:10;;;;;;;17.40;9.95;;;;;;;;;;4977677;28;20026;-67
2022/05/29 04:02:40;;;;;;;16.05;9.15;;;;;;;;;;4989513;28;20141;-67
2022/05/29 04:05:12;;;;;;;13.73;9.40;;;;;;;;;;4990802;28;20030;-66
2022/05/29 04:13:07;;;;;;;15.35;9.82;;;;;;;;;;4974612;28;20031;-66
2022/05/29 04:15:33;;;;;;;15.00;8.38;;;;;;;;;;4974746;28;20037;-69
2022/05/29 04:17:59;;;;;;;15.32;9.00;;;;;;;;;;4973906;28;20039;-71
2022/05/29 04:20:25;;;;;;;16.42;8.25;;;;;;;;;;4984982;28;20038;-67
2022/05/29 04:22:50;;;;;;;15.40;9.05;;;;;;;;;;4989413;28;20110;-66
2022/05/29 04:25:16;;;;;;;13.40;8.60;;;;;;;;;;4973909;28;20026;-67
2022/05/29 04:27:42;;;;;;;14.05;8.52;;;;;;;;;;4973635;28;20066;-71
2022/05/29 04:30:09;;;;;;;15.00;8.48;;;;;;;;;;4973887;28;20402;-67
2022/05/29 04:35:19;;;;;;;13.90;8.88;;;;;;;;;;4975135;28;20031;-69
2022/05/29 04:37:45;;;;;;;14.02;8.85;;;;;;;;;;4975295;28;20030;-67
2022/05/29 04:40:11;;;;;;;16.30;9.43;;;;;;;;;;4975340;28;20049;-69
2022/05/29 04:42:37;;;;;;;15.65;8.60;;;;;;;;;;4975200;28;20126;-73
2022/05/29 04:45:03;;;;;;;14.55;8.95;;;;;;;;;;4975617;28;20110;-69
2022/05/29 04:47:29;;;;;;;14.05;8.60;;;;;;;;;;4994530;28;20026;-67
2022/05/29 04:49:55;;;;;;;11.98;9.00;;;;;;;;;;4994310;28;20591;-68
2022/05/29 04:52:20;;;;;;;18.83;9.32;;;;;;;;;;4994527;28;20124;-68
2022/05/29 04:54:46;;;;;;;15.00;9.80;;;;;;;;;;4994150;28;20034;-69
2022/05/29 04:57:12;;;;;;;15.73;9.27;;;;;;;;;;4994136;28;20382;-67
2022/05/29 04:59:38;;;;;;;12.38;8.50;;;;;;;;;;4994017;28;20034;-68
2022/05/29 05:02:04;;;;;;;14.00;8.68;;;;;;;;;;4992889;28;20026;-67
2022/05/29 05:04:30;;;;;;;14.77;8.55;;;;;;;;;;4995168;28;20042;-68
2022/05/29 05:07:01;;;;;;;13.80;7.43;;;;;;;;;;4992253;28;20026;-65
2022/05/29 05:09:28;;;;;;;11.30;7.55;;;;;;;;;;4994269;28;20038;-69
2022/05/29 05:11:55;;;;;;;14.55;7.05;;;;;;;;;;4994062;28;20424;-66
2022/05/29 05:14:23;;;;;;;11.90;7.63;;;;;;;;;;4994125;28;20473;-70
2022/05/29 05:16:49;;;;;;;13.73;7.07;;;;;;;;;;4992859;28;20046;-66
2022/05/29 05:19:16;;;;;;;13.05;7.85;;;;;;;;;;4991024;28;20124;-68
2022/05/29 05:21:42;;;;;;;18.27;7.68;;;;;;;;;;4985231;28;20021;-68
2022/05/29 05:24:09;;;;;;;14.23;8.13;;;;;;;;;;4993464;28;20034;-69
2022/05/29 05:26:35;;;;;;;14.98;8.05;;;;;;;;;;4995114;28;20030;-69
2022/05/29 05:29:02;;;;;;;16.38;7.82;;;;;;;;;;4995071;28;20117;-70
2022/05/29 05:31:27;;;;;;;15.00;7.68;;;;;;;;;;4995055;28;20081;-66
2022/05/29 05:33:53;;;;;;;12.68;7.95;;;;;;;;;;4994848;28;20034;-65
2022/05/29 05:36:20;;;;;;;13.18;6.70;;;;;;;;;;4993579;28;20026;-72
2022/05/29 05:38:46;;;;;;;11.30;6.60;;;;;;;;;;4994545;28;20039;-75
2022/05/29 05:41:13;;;;;;;11.23;7.25;;;;;;;;;;4994538;28;20026;-68
2022/05/29 05:43:40;;;;;;;13.50;6.97;;;;;;;;;;4994000;28;20188;-72
2022/05/29 05:46:07;;;;;;;15.57;6.97;;;;;;;;;;4991908;28;20022;-69
2022/05/29 05:48:34;;;;;;;13.25;7.47;;;;;;;;;;4994576;28;20113;-71
2022/05/29 05:51:00;;;;;;;16.88;7.20;;;;;;;;;;4994420;28;20045;-71
2022/05/29 05:53:27;;;;;;;13.30;6.45;;;;;;;;;;4994148;28;20041;-69
2022/05/29 05:55:52;;;;;;;17.25;7.03;;;;;;;;;;4994542;28;20030;-69
2022/05/29 05:58:19;;;;;;;12.18;7.40;;;;;;;;;;4993563;28;20071;-66
2022/05/29 06:00:47;;;;;;;16.40;7.20;;;;;;;;;;4992314;28;20027;-73
2022/05/29 06:03:13;;;;;;;13.80;7.32;;;;;;;;;;4994349;28;20033;-70
2022/05/29 06:05:38;;;;;;;11.90;6.90;;;;;;;;;;4993940;28;20189;-70
2022/05/29 06:08:05;;;;;;;12.65;6.88;;;;;;;;;;4994130;28;20117;-71
2022/05/29 06:10:31;;;;;;;11.63;6.28;;;;;;;;;;4992222;28;20014;-69
2022/05/29 06:13:05;;;;;;;13.55;6.65;;;;;;;;;;4994091;28;20034;-66
2022/05/29 06:15:31;;;;;;;11.27;7.30;;;;;;;;;;4994038;28;20065;-71
2022/05/29 06:17:57;;;;;;;13.52;6.38;;;;;;;;;;4988181;28;20170;-68
2022/05/29 06:20:24;;;;;;;9.43;6.00;;;;;;;;;;4983148;28;20059;-69
2022/05/29 06:22:50;;;;;;;14.00;6.70;;;;;;;;;;4974389;28;20033;-68
2022/05/29 06:25:16;;;;;;;12.50;6.93;;;;;;;;;;4974528;28;20061;-68
2022/05/29 06:27:43;;;;;;;18.15;6.45;;;;;;;;;;4973830;28;20584;-72
2022/05/29 06:30:12;;;;;;;11.77;6.57;;;;;;;;;;4974448;28;20041;-65
2022/05/29 06:32:40;;;;;;;15.25;7.05;;;;;;;;;;4974221;28;20537;-72
2022/05/29 06:35:09;;;;;;;15.60;7.07;;;;;;;;;;4985342;28;20130;-69
2022/05/29 06:37:39;;;;;;;10.65;6.20;;;;;;;;;;4978531;28;20097;-68
2022/05/29 06:40:05;;;;;;;11.90;6.80;;;;;;;;;;4992952;28;20052;-66
2022/05/29 06:42:31;;;;;;;16.33;6.38;;;;;;;;;;4991536;28;20033;-67
2022/05/29 06:44:58;;;;;;;13.57;6.63;;;;;;;;;;4991023;28;20046;-69
2022/05/29 06:47:25;;;;;;;18.27;6.38;;;;;;;;;;4991657;28;20025;-69
2022/05/29 06:49:51;;;;;;;12.73;6.47;;;;;;;;;;4990592;28;20558;-67
2022/05/29 06:52:18;;;;;;;13.85;6.15;;;;;;;;;;4992448;28;20031;-67
2022/05/29 06:54:45;;;;;;;11.73;6.57;;;;;;;;;;4992203;28;20042;-68
2022/05/29 06:57:12;;;;;;;14.50;6.55;;;;;;;;;;4991521;28;20461;-68
2022/05/29 07:07:59;;;;;;;13.38;6.03;;;;;;;;;;4992515;28;20045;-68
2022/05/29 07:10:27;;;;;;;10.35;5.68;;;;;;;;;;4990640;28;20022;-68
2022/05/29 07:12:53;;;;;;;14.70;5.70;;;;;;;;;;4992484;28;20042;-67
2022/05/29 07:15:19;;;;;;;10.60;5.88;;;;;;;;;;4992621;28;20474;-69
2022/05/29 07:17:45;;;;;;;11.65;5.68;;;;;;;;;;4991607;28;20026;-68
2022/05/29 07:20:12;;;;;;;14.40;5.88;;;;;;;;;;4992309;28;20027;-69
2022/05/29 07:22:40;;;;;;;12.10;6.00;;;;;;;;;;4992149;28;20037;-69
2022/05/29 07:25:07;;;;;;;13.73;6.40;;;;;;;;;;4992124;28;20022;-71
2022/05/29 07:27:34;;;;;;;12.15;6.13;;;;;;;;;;4992412;28;20085;-70
2022/05/29 07:30:00;;;;;;;14.05;5.95;;;;;;;;;;4992577;28;20035;-72
2022/05/29 07:32:25;;;;;;;15.10;5.80;;;;;;;;;;4992836;28;20477;-72
2022/05/29 07:34:52;;;;;;;14.40;6.05;;;;;;;;;;4991847;28;20034;-74
2022/05/29 07:37:18;;;;;;;11.18;5.60;;;;;;;;;;4992453;28;20066;-73
2022/05/29 07:39:48;;;;;;;13.98;6.13;;;;;;;;;;4993965;28;20469;-69
2022/05/29 07:44:59;;;;;;;10.07;5.95;;;;;;;;;;4994486;28;20061;-69
2022/05/29 07:47:27;;;;;;;13.10;5.38;;;;;;;;;;4996411;28;20465;-69
2022/05/29 07:49:56;;;;;;;11.95;5.15;;;;;;;;;;4995703;28;20417;-71
2022/05/29 07:52:22;;;;;;;12.07;5.35;;;;;;;;;;4976984;28;20033;-73
2022/05/29 07:54:48;;;;;;;16.38;5.32;;;;;;;;;;4986833;28;20038;-67
2022/05/29 07:57:14;;;;;;;13.27;5.40;;;;;;;;;;4995076;28;20027;-66
2022/05/29 07:59:40;;;;;;;12.98;5.72;;;;;;;;;;4996049;28;20104;-68
2022/05/29 08:02:06;;;;;;;10.68;5.53;;;;;;;;;;4995638;28;20031;-68
2022/05/29 08:04:32;;;;;;;10.80;5.68;;;;;;;;;;4995756;28;20046;-67
2022/05/29 08:06:57;;;;;;;12.80;5.75;;;;;;;;;;4994005;28;20027;-69
2022/05/29 08:09:24;;;;;;;10.18;5.63;;;;;;;;;;5004472;28;20045;-68
2022/05/29 08:11:50;;;;;;;12.85;6.03;;;;;;;;;;4994713;28;20114;-67
2022/05/29 08:14:16;;;;;;;11.93;5.65;;;;;;;;;;4994570;28;20045;-68
2022/05/29 08:16:42;;;;;;;11.95;5.75;;;;;;;;;;4994080;28;20105;-67
2022/05/29 08:19:08;;;;;;;11.95;5.50;;;;;;;;;;4985436;28;20477;-68
2022/05/29 08:21:34;;;;;;;14.82;5.68;;;;;;;;;;4989045;28;20556;-68
2022/05/29 08:36:18;;;;;;;13.13;5.13;;;;;;;;;;4931231;29;20446;-68
2022/05/29 08:38:46;;;;;;;14.95;5.57;;;;;;;;;;4942648;29;20040;-68
2022/05/29 08:41:18;;;;;;;18.65;5.82;;;;;;;;;;4935996;29;20063;-68
2022/05/29 08:43:59;;;;;;;11.35;5.47;;;;;;;;;;4937062;29;20059;-68
2022/05/29 08:46:32;;;;;;;20.17;6.18;;;;;;;;;;4937472;29;20493;-69
2022/05/29 08:48:58;;;;;;;14.32;5.85;;;;;;;;;;4937352;29;20502;-68
2022/05/29 08:51:43;;;;;;;13.15;5.47;;;;;;;;;;4936639;29;20045;-68
2022/05/29 08:54:33;;;;;;;14.57;5.28;;;;;;;;;;4937156;29;20039;-73
2022/05/29 08:57:21;;;;;;;12.48;5.72;;;;;;;;;;4936941;29;20490;-72
2022/05/29 08:59:50;;;;;;;14.27;5.70;;;;;;;;;;4936723;29;20036;-75
2022/05/29 09:02:37;;;;;;;13.20;5.25;;;;;;;;;;4936776;29;20094;-75
2022/05/29 09:05:09;;;;;;;14.93;6.03;;;;;;;;;;4937233;29;20031;-69
2022/05/29 09:07:38;;;;;;;15.32;5.90;;;;;;;;;;4936905;29;20561;-69
2022/05/29 09:10:20;;;;;;;14.88;4.97;;;;;;;;;;4935983;29;20036;-71
2022/05/29 09:12:53;;;;;;;11.38;5.40;;;;;;;;;;4936736;29;20140;-73
2022/05/29 09:15:38;;;;;;;13.40;5.30;;;;;;;;;;4936880;29;20058;-68
2022/05/29 09:18:12;;;;;;;16.08;5.40;;;;;;;;;;4936700;29;20027;-69
2022/05/29 09:20:41;;;;;;;12.93;5.78;;;;;;;;;;4944769;28;20390;-73
2022/05/29 09:23:09;;;;;;;15.90;7.97;;;;;;;;;;4956140;29;20386;-69
2022/05/29 09:25:42;;;;;;;11.73;5.47;;;;;;;;;;4956360;29;20095;-73
2022/05/29 09:28:36;;;;;;;12.57;6.47;;;;;;;;;;4956169;29;20031;-74
2022/05/29 09:31:22;;;;;;;16.90;6.35;;;;;;;;;;4956238;28;20047;-73
2022/05/29 09:33:48;;;;;;;15.85;5.97;;;;;;;;;;4955919;29;20031;-72
2022/05/29 09:36:44;;;;;;;16.88;6.72;;;;;;;;;;4955963;29;20054;-75
2022/05/29 09:39:25;;;;;;;14.93;5.05;;;;;;;;;;4956139;29;20043;-69
2022/05/29 09:42:01;;;;;;;12.55;5.20;;;;;;;;;;4955648;28;20074;-70
2022/05/29 09:44:27;;;;;;;10.35;5.68;;;;;;;;;;4955733;29;20110;-74
2022/05/29 09:46:55;;;;;;;13.93;4.80;;;;;;;;;;4955533;29;20055;-73
2022/05/29 09:49:43;;;;;;;18.85;5.18;;;;;;;;;;4955773;29;20040;-73
2022/05/29 09:52:20;;;;;;;12.88;5.38;;;;;;;;;;4955407;28;20039;-74
2022/05/29 09:55:21;;;;;;;14.40;4.70;;;;;;;;;;4955683;29;20572;-75
2022/05/29 09:57:58;;;;;;;16.95;7.50;;;;;;;;;;4955191;29;20058;-73
2022/05/29 10:00:55;;;;;;;13.85;5.68;;;;;;;;;;4955388;29;20167;-69
2022/05/29 10:03:43;;;;;;;10.82;6.43;;;;;;;;;;4949587;28;20130;-72
2022/05/29 10:06:42;;;;;;;14.48;5.38;;;;;;;;;;4955457;29;20490;-69
2022/05/29 10:09:16;;;;;;;12.35;4.90;;;;;;;;;;4947603;29;20031;-71
2022/05/29 10:11:48;;;;;;;13.65;4.80;;;;;;;;;;4935991;29;20103;-73
2022/05/29 10:14:17;;;;;;;12.38;5.50;;;;;;;;;;4935730;29;20028;-71
2022/05/29 10:16:43;;;;;;;15.43;5.43;;;;;;;;;;4936128;29;20032;-67
2022/05/29 10:19:14;;;;;;;12.88;5.22;;;;;;;;;;4935932;29;20427;-67
2022/05/29 10:21:48;;;;;;;13.75;5.55;;;;;;;;;;4935774;29;20040;-68
2022/05/29 10:24:37;;;;;;;14.85;5.32;;;;;;;;;;4935655;29;20035;-67
2022/05/29 10:27:14;;;;;;;12.70;5.43;;;;;;;;;;4935723;29;20359;-68
2022/05/29 10:29:41;;;;;;;10.73;4.70;;;;;;;;;;4936091;29;20062;-66
2022/05/29 10:32:22;;;;;;;16.52;5.50;;;;;;;;;;4935772;29;20115;-68
2022/05/29 10:34:49;;;;;;;17.85;5.60;;;;;;;;;;4935591;29;20047;-67
2022/05/29 10:37:38;;;;;;;12.05;4.72;;;;;;;;;;4935502;29;20486;-69
2022/05/29 10:40:31;;;;;;;14.15;4.63;;;;;;;;;;4935472;29;20347;-69
2022/05/29 10:43:03;;;;;;;12.20;5.63;;;;;;;;;;4936028;29;20550;-74
2022/05/29 10:45:40;;;;;;;14.52;8.75;;;;;;;;;;4935593;29;20074;-72
2022/05/29 10:48:21;;;;;;;14.32;5.40;;;;;;;;;;4935290;29;20462;-70
2022/05/29 10:51:15;;;;;;;12.80;4.97;;;;;;;;;;4935431;29;20058;-72
2022/05/29 10:54:02;;;;;;;12.70;5.10;;;;;;;;;;4935706;29;20434;-75
2022/05/29 10:56:37;;;;;;;17.13;5.53;;;;;;;;;;4935869;29;20439;-74
2022/05/29 10:59:03;;;;;;;20.90;6.28;;;;;;;;;;4935875;29;20122;-73
2022/05/29 11:04:37;;;;;;;10.50;4.72;;;;;;;;;;4934858;29;20059;-73
2022/05/29 11:07:05;;;;;;;13.40;5.25;;;;;;;;;;4935376;29;20036;-73
2022/05/29 11:09:44;;;;;;;11.38;5.70;;;;;;;;;;4935381;29;20024;-72
2022/05/29 11:12:34;;;;;;;14.05;6.03;;;;;;;;;;4935388;29;20043;-74
2022/05/29 11:15:06;;;;;;;15.52;5.35;;;;;;;;;;4937421;29;20090;-69
2022/05/29 11:18:03;;;;;;;15.20;4.93;;;;;;;;;;4939181;29;20386;-71
2022/05/29 11:20:49;;;;;;;16.75;5.18;;;;;;;;;;4939299;29;20067;-70
2022/05/29 11:23:59;;;;;;;12.13;5.25;;;;;;;;;;4928676;29;20119;-75
2022/05/29 11:26:33;;;;;;;13.57;4.68;;;;;;;;;;4880135;29;20053;-75
2022/05/29 11:29:21;;;;;;;12.40;4.78;;;;;;;;;;4933953;29;20051;-72
2022/05/29 11:32:19;;;;;;;11.93;5.55;;;;;;;;;;4938637;29;20031;-74
2022/05/29 11:35:16;;;;;;;13.20;4.85;;;;;;;;;;4930915;29;20458;-69
2022/05/29 11:37:50;;;;;;;12.45;5.32;;;;;;;;;;4938779;29;20071;-70
2022/05/29 11:40:23;;;;;;;17.25;4.65;;;;;;;;;;4938947;29;20044;-71
2022/05/29 11:42:55;;;;;;;14.30;4.47;;;;;;;;;;4939052;29;20340;-71
2022/05/29 11:51:41;;;;;;;9.68;4.90;;;;;;;;;;4938752;29;20127;-70
2022/05/29 11:54:17;;;;;;;10.80;4.22;;;;;;;;;;4938618;29;20035;-70
2022/05/29 11:56:50;;;;;;;19.13;11.40;;;;;;;;;;4938755;29;20047;-67
2022/05/29 11:59:16;;;;;;;29.48;16.63;;;;;;;;;;4938677;29;20463;-66
2022/05/29 12:01:48;;;;;;;30.02;17.55;;;;;;;;;;4938718;29;20055;-66
2022/05/29 12:04:38;;;;;;;16.10;5.70;;;;;;;;;;4938809;29;20082;-67
2022/05/29 12:07:40;;;;;;;12.88;5.60;;;;;;;;;;4938539;29;20118;-67
2022/05/29 12:10:22;;;;;;;14.60;5.32;;;;;;;;;;4935083;29;20474;-67
2022/05/29 12:12:58;;;;;;;14.60;6.47;;;;;;;;;;4938229;29;20040;-66
2022/05/29 12:15:24;;;;;;;11.63;5.03;;;;;;;;;;4938617;29;20343;-68
2022/05/29 12:17:58;;;;;;;15.30;5.28;;;;;;;;;;4938240;29;20466;-66
2022/05/29 12:20:37;;;;;;;16.42;8.35;;;;;;;;;;4938122;29;20044;-67
2022/05/29 12:23:23;;;;;;;17.27;7.10;;;;;;;;;;4938177;29;20404;-69
2022/05/29 12:26:07;;;;;;;12.63;4.47;;;;;;;;;;4937307;29;20035;-69
2022/05/29 12:29:09;;;;;;;9.88;4.60;;;;;;;;;;4938169;29;20050;-74
2022/05/29 12:31:49;;;;;;;12.75;5.00;;;;;;;;;;4907460;29;20052;-68
2022/05/29 12:34:26;;;;;;;12.75;4.68;;;;;;;;;;4937863;29;20454;-68
2022/05/29 12:37:40;;;;;;;11.52;4.50;;;;;;;;;;4937713;29;20170;-69
2022/05/29 12:40:39;;;;;;;14.48;6.00;;;;;;;;;;4908301;29;20058;-67
2022/05/29 12:43:34;;;;;;;12.60;5.03;;;;;;;;;;4937617;29;20063;-69
2022/05/29 12:46:21;;;;;;;14.27;5.07;;;;;;;;;;4937884;29;20035;-69
2022/05/29 12:49:20;;;;;;;12.85;4.13;;;;;;;;;;4937866;29;20032;-69
2022/05/29 12:51:52;;;;;;;19.70;3.50;;;;;;;;;;4920335;29;20047;-70
2022/05/29 12:54:36;;;;;;;16.23;3.95;;;;;;;;;;4937790;29;20119;-72
2022/05/29 12:57:39;;;;;;;12.93;3.22;;;;;;;;;;4937414;29;20493;-70
2022/05/29 13:00:10;;;;;;;13.50;3.90;;;;;;;;;;4937714;29;20040;-70
2022/05/29 13:03:04;;;;;;;16.40;4.40;;;;;;;;;;4937649;29;20057;-70
2022/05/29 13:05:44;;;;;;;9.75;3.65;;;;;;;;;;4937668;29;20111;-71
2022/05/29 13:08:34;;;;;;;18.67;3.75;;;;;;;;;;4937270;29;20134;-75
2022/05/29 13:11:01;;;;;;;11.63;3.63;;;;;;;;;;4937049;29;20035;-69
2022/05/29 13:13:43;;;;;;;11.13;3.40;;;;;;;;;;4937511;29;20035;-72
2022/05/29 13:16:43;;;;;;;9.32;2.67;;;;;;;;;;4937155;29;20035;-67
2022/05/29 13:19:17;;;;;;;13.75;3.28;;;;;;;;;;4937144;29;20039;-67
2022/05/29 13:22:07;;;;;;;8.40;2.55;;;;;;;;;;4937391;29;20058;-66
2022/05/29 13:24:42;;;;;;;17.77;3.33;;;;;;;;;;4919735;29;20402;-70
2022/05/29 13:27:17;;;;;;;9.77;2.38;;;;;;;;;;4936841;29;20040;-67
2022/05/29 13:29:46;;;;;;;5.68;2.10;;;;;;;;;;4936756;29;20031;-69
2022/05/29 13:32:16;;;;;;;12.48;2.92;;;;;;;;;;4936962;29;20094;-67
2022/05/29 13:35:01;;;;;;;5.95;2.30;;;;;;;;;;4936644;29;20151;-66
2022/05/29 13:37:49;;;;;;;20.75;3.28;;;;;;;;;;4937628;29;20144;-67
2022/05/29 13:40:21;;;;;;;11.30;2.50;;;;;;;;;;4937373;29;20054;-67
2022/05/29 13:42:50;;;;;;;8.93;2.53;;;;;;;;;;4936483;29;20068;-67
2022/05/29 13:45:19;;;;;;;11.68;2.55;;;;;;;;;;4936428;29;20114;-67
2022/05/29 13:47:47;;;;;;;8.10;2.13;;;;;;;;;;4937170;29;20456;-68
2022/05/29 13:50:18;;;;;;;6.13;2.10;;;;;;;;;;4937149;29;20028;-67
2022/05/29 13:52:54;;;;;;;15.35;3.05;;;;;;;;;;4936660;29;20110;-67
2022/05/29 13:55:24;;;;;;;12.52;2.58;;;;;;;;;;4936716;29;20043;-67
2022/05/29 14:06:36;;;;;;;7.35;2.10;;;;;;;;;;4936583;29;20434;-74
2022/05/29 14:09:09;;;;;;;10.13;2.47;;;;;;;;;;4936553;29;20478;-73
2022/05/29 14:11:52;;;;;;;7.68;2.10;;;;;;;;;;4919298;29;20059;-71
2022/05/29 14:14:43;;;;;;;7.05;1.83;;;;;;;;;;4919270;29;20073;-72
2022/05/29 14:17:39;;;;;;;8.80;2.17;;;;;;;;;;4929986;29;20043;-70
2022/05/29 14:20:30;;;;;;;10.52;2.10;;;;;;;;;;4936331;29;20035;-69
2022/05/29 14:23:31;;;;;;;10.80;2.20;;;;;;;;;;4936215;29;20035;-70
2022/05/29 14:26:06;;;;;;;13.82;2.22;;;;;;;;;;4934105;29;20550;-71
2022/05/29 14:28:50;;;;;;;11.45;2.03;;;;;;;;;;4935884;29;20040;-66
2022/05/29 14:31:34;;;;;;;9.88;1.73;;;;;;;;;;4935813;29;20047;-71
2022/05/29 14:34:00;;;;;;;5.15;1.58;;;;;;;;;;4935826;29;20115;-68
2022/05/29 14:36:52;;;;;;;11.23;1.95;;;;;;;;;;4935961;29;20119;-68
2022/05/29 14:39:57;;;;;;;10.90;1.90;;;;;;;;;;4936408;29;20039;-70
2022/05/29 14:42:27;;;;;;;9.23;1.75;;;;;;;;;;4935827;29;20036;-66
2022/05/29 14:45:07;;;;;;;9.50;1.83;;;;;;;;;;4935861;29;20449;-66
2022/05/29 14:48:01;;;;;;;9.93;2.70;;;;;;;;;;4935928;29;20036;-66
2022/05/29 14:50:55;;;;;;;;;;;;;;;;;;4935683;29;20035;-68
2022/05/29 14:53:48;;;;;;;7.82;2.22;;;;;;;;;;4935315;29;19914;-69
2022/05/29 14:56:37;;;;;;;7.57;2.10;;;;;;;;;;4935899;29;20082;-68
2022/05/29 14:59:28;;;;;;;6.35;2.10;;;;;;;;;;4935773;29;20054;-67
2022/05/29 15:01:57;;;;;;;6.13;1.77;;;;;;;;;;4935933;29;20066;-69
2022/05/29 15:04:28;;;;;;;6.15;1.73;;;;;;;;;;4936103;29;20387;-67
2022/05/29 15:12:42;;;;;;;8.57;1.92;;;;;;;;;;4935428;29;20031;-68
2022/05/29 15:15:24;;;;;;;8.20;2.13;;;;;;;;;;4935066;29;20119;-67
2022/05/29 15:17:51;;;;;;;7.68;2.00;;;;;;;;;;4935260;29;20038;-66
2022/05/29 15:25:58;;;;;;;7.38;1.95;;;;;;;;;;4938131;29;20040;-68
2022/05/29 15:28:24;;;;;;;9.18;2.10;;;;;;;;;;4936971;29;20043;-67
2022/05/29 15:30:50;;;;;;;9.73;2.03;;;;;;;;;;4935245;29;20518;-67
2022/05/29 15:33:17;;;;;;;9.57;2.05;;;;;;;;;;4935342;29;20474;-67
2022/05/29 15:36:11;;;;;;;9.80;2.35;;;;;;;;;;4934863;29;20494;-67
2022/05/29 15:39:00;;;;;;;9.90;2.30;;;;;;;;;;4930053;29;20051;-68
2022/05/29 15:41:50;;;;;;;8.70;2.75;;;;;;;;;;4935056;29;20048;-67
2022/05/29 15:44:19;;;;;;;11.18;2.25;;;;;;;;;;4935429;29;20068;-68
2022/05/29 15:47:26;;;;;;;8.15;1.92;;;;;;;;;;4935054;29;20055;-67
2022/05/29 15:50:33;;;;;;;7.97;2.42;;;;;;;;;;4934533;29;20050;-68
2022/05/29 15:53:20;;;;;;;10.63;2.63;;;;;;;;;;4915482;29;20172;-67
2022/05/29 15:55:55;;;;;;;12.25;2.28;;;;;;;;;;4933553;29;20099;-67
2022/05/29 15:58:51;;;;;;;11.15;2.00;;;;;;;;;;4934019;29;20134;-67
2022/05/29 16:01:19;;;;;;;12.27;2.38;;;;;;;;;;4937353;29;20040;-71
2022/05/29 16:03:47;;;;;;;14.80;2.50;;;;;;;;;;4938578;29;20024;-66
2022/05/29 16:06:19;;;;;;;9.20;2.00;;;;;;;;;;4938384;29;20039;-66
2022/05/29 16:09:06;;;;;;;11.73;2.67;;;;;;;;;;4938781;29;20032;-66
2022/05/29 16:11:59;;;;;;;9.05;2.00;;;;;;;;;;4938520;29;20411;-66
2022/05/29 16:14:35;;;;;;;10.88;2.58;;;;;;;;;;4938386;29;20094;-66
2022/05/29 16:17:13;;;;;;;8.98;2.55;;;;;;;;;;4938606;29;20324;-67
2022/05/29 16:19:50;;;;;;;9.63;2.13;;;;;;;;;;4938380;29;20438;-68